首页
METAR-TAF:

METAR-TAF

机场 :

扎達爾, 克罗地亚

纬度: 44-06N, 经度: 015-21E, 海拔: 82米

当前天气观测

该预报发布于25分钟前的04:00 UTC
风速10节,风向,在东南西南之间变化
温度 18°C
湿度 94%
气压 1001 hPa
能見度: 6000
少量云层高于2000英尺
多云层高于3000英尺

METAR: LDZD 050400Z 18010KT 140V230 6000 RA FEW020 BKN030 18/17 Q1001 TEMPO 15020G30KT

时间: 06:25 (04:25 UTC)

预报

该预报发布于5小时和0分钟前的23:25 UTC
预报有效从05日的 00点(UTC)到 06日的 00点(UTC)
风速18节,风向南转南东
能见度10公里或以上
散云层高于5000英尺
几率 40% :
短暂存在
从 05日的 00点(UTC)到 05日的 05点(UTC)
风速22节,风向南转南东,有时为32节阵风
短暂存在
从 05日的 00点(UTC)到 05日的 18点(UTC)
能見度: 4000
散云层高于1000英尺
少量云层高于2000英尺, 塔状积云.
多云层高于2500英尺
阵雨
几率 30% :
短暂存在
从 05日的 00点(UTC)到 05日的 15点(UTC)
风速15节,风向多变,有时为25节阵风
能見度: 2000
散云层高于1000英尺
散云层高于2000英尺, 积雨云.
多云层高于2500英尺
雷暴, 雨
成为
从 05日的 05点(UTC)到 05日的 07点(UTC)
风速10节,风向西南
成为
从 05日的 12点(UTC)到 05日的 14点(UTC)
风速14节,风向南转南东

TAF: LDZD 042325Z 0500/0600 15018KT 9999 SCT050 TX20/0513Z TN16/0523Z PROB40 TEMPO 0500/0505 15022G32KT TEMPO 0500/0518 4000 SHRA SCT010 FEW020TCU BKN025 PROB30 TEMPO 0500/0515 VRB15G25KT 2000 TSRA SCT010 SCT020CB BKN025 BECMG 0505/0507 22010KT BECMG 0512/0514 15014KT

超过4000个机场的气象观测和天气预报(METAR&TAF报告)。

可查询的气象台以黄色和红色小点在地图上表示。

将鼠标移到小点上方,可查看气象台名称。

然后点击查看天气观测和预报。

如需切换地图:点击带黑十字的绿色按钮放大地图;点击带横线的绿色按钮缩小地图;或者点击绿色箭头查看邻近地区的地图。


METAR-TAF: